<?xml version="1.0" encoding="UTF-8" standalone="no" ?>
<gpx xmlns="http://www.topografix.com/GPX/1/1" xmlns:xsi="http://www.w3.org/2001/XMLSchema-instance" xsi:schemaLocation="http://www.topografix.com/GPX/1/1 http://www.topografix.com/GPX/1/1/gpx.xsd" version="1.1" creator="VisuGPX - https://www.visugpx.com">
  <metadata>
    <name>Aux alentours de Buoux.</name>
    <desc><![CDATA[Buoux. Aux alentours de Buoux     6Kms]]></desc>
  </metadata>
  <wpt lat="43.8315" lon="5.37898">
    <ele>470</ele>
    <name><![CDATA[Parking à l'entrée de Buoux]]></name>
  </wpt>
  <wpt lat="43.83025" lon="5.37749">
    <ele>468</ele>
    <name><![CDATA[Prendre chemin à gauche avant le restaurant]]></name>
  </wpt>
  <wpt lat="43.82943" lon="5.37835">
    <ele>456</ele>
    <name><![CDATA[Prendre la route de gauche]]></name>
  </wpt>
  <wpt lat="43.82253" lon="5.37992">
    <ele>479</ele>
    <name><![CDATA[Patte d'oie, prendre sentier à droite]]></name>
  </wpt>
  <wpt lat="43.82582" lon="5.38935">
    <ele>487</ele>
    <name><![CDATA[Bifurcation, prendre à droite]]></name>
  </wpt>
  <wpt lat="43.8227" lon="5.38531">
    <ele>420</ele>
    <name><![CDATA[Bassin à truites]]></name>
  </wpt>
  <wpt lat="43.82191" lon="5.37546">
    <ele>391</ele>
    <name><![CDATA[Croisement, prendre à gauche]]></name>
  </wpt>
  <trk>
    <name><![CDATA[Aux alentours de Buoux]]></name>
    <trkseg>
      <trkpt lat="43.8315" lon="5.37898">
        <ele>470</ele>
        <time>2019-02-18T11:17:12+01:00</time>
      </trkpt>
      <trkpt lat="43.83136" lon="5.37864">
        <ele>470</ele>
        <time>2019-02-18T11:17:17+01:00</time>
      </trkpt>
      <trkpt lat="43.83144" lon="5.37864">
        <ele>470</ele>
        <time>2019-02-18T11:17:22+01:00</time>
      </trkpt>
      <trkpt lat="43.83156" lon="5.37879">
        <ele>471</ele>
        <time>2019-02-18T11:17:27+01:00</time>
      </trkpt>
      <trkpt lat="43.83158" lon="5.37876">
        <ele>472</ele>
        <time>2019-02-18T11:17:32+01:00</time>
      </trkpt>
      <trkpt lat="43.83118" lon="5.37776">
        <ele>474</ele>
        <time>2019-02-18T11:17:37+01:00</time>
      </trkpt>
      <trkpt lat="43.83025" lon="5.37749">
        <ele>468</ele>
        <time>2019-02-18T11:17:42+01:00</time>
      </trkpt>
      <trkpt lat="43.82999" lon="5.37752">
        <ele>466</ele>
        <time>2019-02-18T11:17:47+01:00</time>
      </trkpt>
      <trkpt lat="43.82978" lon="5.37795">
        <ele>460</ele>
        <time>2019-02-18T11:17:52+01:00</time>
      </trkpt>
      <trkpt lat="43.82967" lon="5.37797">
        <ele>459</ele>
        <time>2019-02-18T11:17:57+01:00</time>
      </trkpt>
      <trkpt lat="43.82965" lon="5.37812">
        <ele>458</ele>
        <time>2019-02-18T11:18:02+01:00</time>
      </trkpt>
      <trkpt lat="43.82943" lon="5.37835">
        <ele>456</ele>
        <time>2019-02-18T11:18:07+01:00</time>
      </trkpt>
      <trkpt lat="43.82914" lon="5.37841">
        <ele>456</ele>
        <time>2019-02-18T11:18:12+01:00</time>
      </trkpt>
      <trkpt lat="43.82889" lon="5.37856">
        <ele>458</ele>
        <time>2019-02-18T11:18:17+01:00</time>
      </trkpt>
      <trkpt lat="43.82853" lon="5.37909">
        <ele>464</ele>
        <time>2019-02-18T11:18:22+01:00</time>
      </trkpt>
      <trkpt lat="43.82827" lon="5.37922">
        <ele>467</ele>
        <time>2019-02-18T11:18:27+01:00</time>
      </trkpt>
      <trkpt lat="43.82808" lon="5.3792">
        <ele>468</ele>
        <time>2019-02-18T11:18:32+01:00</time>
      </trkpt>
      <trkpt lat="43.82801" lon="5.37912">
        <ele>468</ele>
        <time>2019-02-18T11:18:37+01:00</time>
      </trkpt>
      <trkpt lat="43.82766" lon="5.37925">
        <ele>472</ele>
        <time>2019-02-18T11:18:42+01:00</time>
      </trkpt>
      <trkpt lat="43.82753" lon="5.37917">
        <ele>473</ele>
        <time>2019-02-18T11:18:47+01:00</time>
      </trkpt>
      <trkpt lat="43.82738" lon="5.37885">
        <ele>470</ele>
        <time>2019-02-18T11:18:52+01:00</time>
      </trkpt>
      <trkpt lat="43.82715" lon="5.3786">
        <ele>469</ele>
        <time>2019-02-18T11:18:57+01:00</time>
      </trkpt>
      <trkpt lat="43.827" lon="5.37855">
        <ele>470</ele>
        <time>2019-02-18T11:19:02+01:00</time>
      </trkpt>
      <trkpt lat="43.82688" lon="5.37855">
        <ele>471</ele>
        <time>2019-02-18T11:19:07+01:00</time>
      </trkpt>
      <trkpt lat="43.8267" lon="5.3786">
        <ele>474</ele>
        <time>2019-02-18T11:19:12+01:00</time>
      </trkpt>
      <trkpt lat="43.82654" lon="5.37855">
        <ele>475</ele>
        <time>2019-02-18T11:19:17+01:00</time>
      </trkpt>
      <trkpt lat="43.82614" lon="5.37813">
        <ele>475</ele>
        <time>2019-02-18T11:19:22+01:00</time>
      </trkpt>
      <trkpt lat="43.82605" lon="5.37791">
        <ele>474</ele>
        <time>2019-02-18T11:19:27+01:00</time>
      </trkpt>
      <trkpt lat="43.82577" lon="5.37757">
        <ele>474</ele>
        <time>2019-02-18T11:19:32+01:00</time>
      </trkpt>
      <trkpt lat="43.8254" lon="5.37741">
        <ele>477</ele>
        <time>2019-02-18T11:19:37+01:00</time>
      </trkpt>
      <trkpt lat="43.82506" lon="5.3772">
        <ele>479</ele>
        <time>2019-02-18T11:19:42+01:00</time>
      </trkpt>
      <trkpt lat="43.82474" lon="5.37706">
        <ele>480</ele>
        <time>2019-02-18T11:19:47+01:00</time>
      </trkpt>
      <trkpt lat="43.82436" lon="5.37697">
        <ele>481</ele>
        <time>2019-02-18T11:19:52+01:00</time>
      </trkpt>
      <trkpt lat="43.82402" lon="5.37699">
        <ele>481</ele>
        <time>2019-02-18T11:19:57+01:00</time>
      </trkpt>
      <trkpt lat="43.8234" lon="5.37724">
        <ele>481</ele>
        <time>2019-02-18T11:20:02+01:00</time>
      </trkpt>
      <trkpt lat="43.82321" lon="5.37749">
        <ele>479</ele>
        <time>2019-02-18T11:20:07+01:00</time>
      </trkpt>
      <trkpt lat="43.82304" lon="5.37779">
        <ele>474</ele>
        <time>2019-02-18T11:20:12+01:00</time>
      </trkpt>
      <trkpt lat="43.8228" lon="5.37809">
        <ele>470</ele>
        <time>2019-02-18T11:20:17+01:00</time>
      </trkpt>
      <trkpt lat="43.82255" lon="5.37861">
        <ele>469</ele>
        <time>2019-02-18T11:20:22+01:00</time>
      </trkpt>
      <trkpt lat="43.82241" lon="5.37903">
        <ele>463</ele>
        <time>2019-02-18T11:20:27+01:00</time>
      </trkpt>
      <trkpt lat="43.82239" lon="5.3795">
        <ele>465</ele>
        <time>2019-02-18T11:20:32+01:00</time>
      </trkpt>
      <trkpt lat="43.82244" lon="5.37985">
        <ele>473</ele>
        <time>2019-02-18T11:20:37+01:00</time>
      </trkpt>
      <trkpt lat="43.82253" lon="5.37992">
        <ele>479</ele>
        <time>2019-02-18T11:20:42+01:00</time>
      </trkpt>
      <trkpt lat="43.82276" lon="5.38051">
        <ele>483</ele>
        <time>2019-02-18T11:20:47+01:00</time>
      </trkpt>
      <trkpt lat="43.82282" lon="5.38092">
        <ele>482</ele>
        <time>2019-02-18T11:20:52+01:00</time>
      </trkpt>
      <trkpt lat="43.82276" lon="5.38115">
        <ele>478</ele>
        <time>2019-02-18T11:20:57+01:00</time>
      </trkpt>
      <trkpt lat="43.82287" lon="5.38202">
        <ele>474</ele>
        <time>2019-02-18T11:21:02+01:00</time>
      </trkpt>
      <trkpt lat="43.82276" lon="5.38232">
        <ele>466</ele>
        <time>2019-02-18T11:21:07+01:00</time>
      </trkpt>
      <trkpt lat="43.82277" lon="5.38266">
        <ele>461</ele>
        <time>2019-02-18T11:21:12+01:00</time>
      </trkpt>
      <trkpt lat="43.82294" lon="5.38308">
        <ele>466</ele>
        <time>2019-02-18T11:21:17+01:00</time>
      </trkpt>
      <trkpt lat="43.82312" lon="5.38341">
        <ele>473</ele>
        <time>2019-02-18T11:21:22+01:00</time>
      </trkpt>
      <trkpt lat="43.82345" lon="5.38414">
        <ele>472</ele>
        <time>2019-02-18T11:21:27+01:00</time>
      </trkpt>
      <trkpt lat="43.82366" lon="5.38501">
        <ele>473</ele>
        <time>2019-02-18T11:21:32+01:00</time>
      </trkpt>
      <trkpt lat="43.82384" lon="5.38548">
        <ele>476</ele>
        <time>2019-02-18T11:21:37+01:00</time>
      </trkpt>
      <trkpt lat="43.82417" lon="5.38594">
        <ele>492</ele>
        <time>2019-02-18T11:21:42+01:00</time>
      </trkpt>
      <trkpt lat="43.82425" lon="5.38609">
        <ele>493</ele>
        <time>2019-02-18T11:21:47+01:00</time>
      </trkpt>
      <trkpt lat="43.82425" lon="5.38664">
        <ele>485</ele>
        <time>2019-02-18T11:21:52+01:00</time>
      </trkpt>
      <trkpt lat="43.82434" lon="5.38693">
        <ele>485</ele>
        <time>2019-02-18T11:21:57+01:00</time>
      </trkpt>
      <trkpt lat="43.82445" lon="5.38717">
        <ele>487</ele>
        <time>2019-02-18T11:22:02+01:00</time>
      </trkpt>
      <trkpt lat="43.82463" lon="5.38742">
        <ele>493</ele>
        <time>2019-02-18T11:22:07+01:00</time>
      </trkpt>
      <trkpt lat="43.82468" lon="5.38773">
        <ele>488</ele>
        <time>2019-02-18T11:22:12+01:00</time>
      </trkpt>
      <trkpt lat="43.82475" lon="5.38806">
        <ele>482</ele>
        <time>2019-02-18T11:22:17+01:00</time>
      </trkpt>
      <trkpt lat="43.82505" lon="5.38809">
        <ele>494</ele>
        <time>2019-02-18T11:22:22+01:00</time>
      </trkpt>
      <trkpt lat="43.82518" lon="5.38822">
        <ele>494</ele>
        <time>2019-02-18T11:22:27+01:00</time>
      </trkpt>
      <trkpt lat="43.82531" lon="5.38828">
        <ele>495</ele>
        <time>2019-02-18T11:22:32+01:00</time>
      </trkpt>
      <trkpt lat="43.82548" lon="5.38828">
        <ele>499</ele>
        <time>2019-02-18T11:22:37+01:00</time>
      </trkpt>
      <trkpt lat="43.82571" lon="5.38846">
        <ele>501</ele>
        <time>2019-02-18T11:22:42+01:00</time>
      </trkpt>
      <trkpt lat="43.82582" lon="5.38882">
        <ele>499</ele>
        <time>2019-02-18T11:22:47+01:00</time>
      </trkpt>
      <trkpt lat="43.82582" lon="5.38935">
        <ele>487</ele>
        <time>2019-02-18T11:22:52+01:00</time>
      </trkpt>
      <trkpt lat="43.82567" lon="5.38911">
        <ele>489</ele>
        <time>2019-02-18T11:22:57+01:00</time>
      </trkpt>
      <trkpt lat="43.82555" lon="5.38877">
        <ele>490</ele>
        <time>2019-02-18T11:23:02+01:00</time>
      </trkpt>
      <trkpt lat="43.82538" lon="5.38854">
        <ele>490</ele>
        <time>2019-02-18T11:23:07+01:00</time>
      </trkpt>
      <trkpt lat="43.82532" lon="5.38857">
        <ele>487</ele>
        <time>2019-02-18T11:23:12+01:00</time>
      </trkpt>
      <trkpt lat="43.82551" lon="5.38899">
        <ele>484</ele>
        <time>2019-02-18T11:23:17+01:00</time>
      </trkpt>
      <trkpt lat="43.8255" lon="5.38918">
        <ele>478</ele>
        <time>2019-02-18T11:23:22+01:00</time>
      </trkpt>
      <trkpt lat="43.82537" lon="5.38896">
        <ele>478</ele>
        <time>2019-02-18T11:23:27+01:00</time>
      </trkpt>
      <trkpt lat="43.82529" lon="5.38892">
        <ele>475</ele>
        <time>2019-02-18T11:23:32+01:00</time>
      </trkpt>
      <trkpt lat="43.82534" lon="5.38918">
        <ele>470</ele>
        <time>2019-02-18T11:23:37+01:00</time>
      </trkpt>
      <trkpt lat="43.82483" lon="5.3887">
        <ele>466</ele>
        <time>2019-02-18T11:23:42+01:00</time>
      </trkpt>
      <trkpt lat="43.82499" lon="5.38934">
        <ele>450</ele>
        <time>2019-02-18T11:23:47+01:00</time>
      </trkpt>
      <trkpt lat="43.8246" lon="5.38869">
        <ele>457</ele>
        <time>2019-02-18T11:23:52+01:00</time>
      </trkpt>
      <trkpt lat="43.82443" lon="5.38861">
        <ele>453</ele>
        <time>2019-02-18T11:23:57+01:00</time>
      </trkpt>
      <trkpt lat="43.82411" lon="5.38816">
        <ele>451</ele>
        <time>2019-02-18T11:24:02+01:00</time>
      </trkpt>
      <trkpt lat="43.82378" lon="5.38781">
        <ele>446</ele>
        <time>2019-02-18T11:24:07+01:00</time>
      </trkpt>
      <trkpt lat="43.82363" lon="5.38762">
        <ele>442</ele>
        <time>2019-02-18T11:24:12+01:00</time>
      </trkpt>
      <trkpt lat="43.82316" lon="5.38722">
        <ele>428</ele>
        <time>2019-02-18T11:24:17+01:00</time>
      </trkpt>
      <trkpt lat="43.82333" lon="5.38783">
        <ele>427</ele>
        <time>2019-02-18T11:24:22+01:00</time>
      </trkpt>
      <trkpt lat="43.82309" lon="5.38792">
        <ele>427</ele>
        <time>2019-02-18T11:24:27+01:00</time>
      </trkpt>
      <trkpt lat="43.82279" lon="5.38799">
        <ele>428</ele>
        <time>2019-02-18T11:24:32+01:00</time>
      </trkpt>
      <trkpt lat="43.82256" lon="5.38834">
        <ele>434</ele>
        <time>2019-02-18T11:24:37+01:00</time>
      </trkpt>
      <trkpt lat="43.82234" lon="5.38774">
        <ele>432</ele>
        <time>2019-02-18T11:24:42+01:00</time>
      </trkpt>
      <trkpt lat="43.82219" lon="5.38721">
        <ele>431</ele>
        <time>2019-02-18T11:24:47+01:00</time>
      </trkpt>
      <trkpt lat="43.82195" lon="5.38673">
        <ele>431</ele>
        <time>2019-02-18T11:24:52+01:00</time>
      </trkpt>
      <trkpt lat="43.82175" lon="5.38629">
        <ele>428</ele>
        <time>2019-02-18T11:24:57+01:00</time>
      </trkpt>
      <trkpt lat="43.82172" lon="5.38576">
        <ele>418</ele>
        <time>2019-02-18T11:25:02+01:00</time>
      </trkpt>
      <trkpt lat="43.82175" lon="5.38523">
        <ele>417</ele>
        <time>2019-02-18T11:25:07+01:00</time>
      </trkpt>
      <trkpt lat="43.82198" lon="5.38503">
        <ele>415</ele>
        <time>2019-02-18T11:25:12+01:00</time>
      </trkpt>
      <trkpt lat="43.82234" lon="5.38527">
        <ele>413</ele>
        <time>2019-02-18T11:25:17+01:00</time>
      </trkpt>
      <trkpt lat="43.8227" lon="5.38531">
        <ele>420</ele>
        <time>2019-02-18T11:25:22+01:00</time>
      </trkpt>
      <trkpt lat="43.82262" lon="5.38471">
        <ele>419</ele>
        <time>2019-02-18T11:25:27+01:00</time>
      </trkpt>
      <trkpt lat="43.82244" lon="5.38425">
        <ele>415</ele>
        <time>2019-02-18T11:25:32+01:00</time>
      </trkpt>
      <trkpt lat="43.82231" lon="5.38377">
        <ele>421</ele>
        <time>2019-02-18T11:25:37+01:00</time>
      </trkpt>
      <trkpt lat="43.82222" lon="5.38316">
        <ele>425</ele>
        <time>2019-02-18T11:25:42+01:00</time>
      </trkpt>
      <trkpt lat="43.82209" lon="5.38279">
        <ele>426</ele>
        <time>2019-02-18T11:25:47+01:00</time>
      </trkpt>
      <trkpt lat="43.82192" lon="5.38249">
        <ele>420</ele>
        <time>2019-02-18T11:25:52+01:00</time>
      </trkpt>
      <trkpt lat="43.82167" lon="5.38225">
        <ele>407</ele>
        <time>2019-02-18T11:25:57+01:00</time>
      </trkpt>
      <trkpt lat="43.82163" lon="5.38179">
        <ele>408</ele>
        <time>2019-02-18T11:26:02+01:00</time>
      </trkpt>
      <trkpt lat="43.82154" lon="5.38136">
        <ele>406</ele>
        <time>2019-02-18T11:26:07+01:00</time>
      </trkpt>
      <trkpt lat="43.82146" lon="5.38121">
        <ele>406</ele>
        <time>2019-02-18T11:26:12+01:00</time>
      </trkpt>
      <trkpt lat="43.82144" lon="5.38063">
        <ele>406</ele>
        <time>2019-02-18T11:26:17+01:00</time>
      </trkpt>
      <trkpt lat="43.82157" lon="5.37968">
        <ele>411</ele>
        <time>2019-02-18T11:26:22+01:00</time>
      </trkpt>
      <trkpt lat="43.82137" lon="5.37884">
        <ele>405</ele>
        <time>2019-02-18T11:26:27+01:00</time>
      </trkpt>
      <trkpt lat="43.82134" lon="5.37825">
        <ele>399</ele>
        <time>2019-02-18T11:26:32+01:00</time>
      </trkpt>
      <trkpt lat="43.82146" lon="5.37762">
        <ele>397</ele>
        <time>2019-02-18T11:26:37+01:00</time>
      </trkpt>
      <trkpt lat="43.82164" lon="5.37699">
        <ele>391</ele>
        <time>2019-02-18T11:26:42+01:00</time>
      </trkpt>
      <trkpt lat="43.82184" lon="5.37648">
        <ele>394</ele>
        <time>2019-02-18T11:26:47+01:00</time>
      </trkpt>
      <trkpt lat="43.82198" lon="5.37613">
        <ele>397</ele>
        <time>2019-02-18T11:26:52+01:00</time>
      </trkpt>
      <trkpt lat="43.822" lon="5.37577">
        <ele>396</ele>
        <time>2019-02-18T11:26:57+01:00</time>
      </trkpt>
      <trkpt lat="43.82191" lon="5.37546">
        <ele>391</ele>
        <time>2019-02-18T11:27:02+01:00</time>
      </trkpt>
      <trkpt lat="43.82148" lon="5.3754">
        <ele>390</ele>
        <time>2019-02-18T11:27:07+01:00</time>
      </trkpt>
      <trkpt lat="43.82165" lon="5.37506">
        <ele>387</ele>
        <time>2019-02-18T11:27:12+01:00</time>
      </trkpt>
      <trkpt lat="43.82193" lon="5.37463">
        <ele>392</ele>
        <time>2019-02-18T11:27:17+01:00</time>
      </trkpt>
      <trkpt lat="43.822" lon="5.3743">
        <ele>393</ele>
        <time>2019-02-18T11:27:22+01:00</time>
      </trkpt>
      <trkpt lat="43.82211" lon="5.37375">
        <ele>394</ele>
        <time>2019-02-18T11:27:27+01:00</time>
      </trkpt>
      <trkpt lat="43.82227" lon="5.37327">
        <ele>390</ele>
        <time>2019-02-18T11:27:32+01:00</time>
      </trkpt>
      <trkpt lat="43.82255" lon="5.37285">
        <ele>383</ele>
        <time>2019-02-18T11:27:37+01:00</time>
      </trkpt>
      <trkpt lat="43.82306" lon="5.37245">
        <ele>378</ele>
        <time>2019-02-18T11:27:42+01:00</time>
      </trkpt>
      <trkpt lat="43.8235" lon="5.37249">
        <ele>377</ele>
        <time>2019-02-18T11:27:47+01:00</time>
      </trkpt>
      <trkpt lat="43.82365" lon="5.3724">
        <ele>380</ele>
        <time>2019-02-18T11:27:52+01:00</time>
      </trkpt>
      <trkpt lat="43.82368" lon="5.37204">
        <ele>382</ele>
        <time>2019-02-18T11:27:57+01:00</time>
      </trkpt>
      <trkpt lat="43.82372" lon="5.37167">
        <ele>384</ele>
        <time>2019-02-18T11:28:02+01:00</time>
      </trkpt>
      <trkpt lat="43.82388" lon="5.37156">
        <ele>389</ele>
        <time>2019-02-18T11:28:07+01:00</time>
      </trkpt>
      <trkpt lat="43.82398" lon="5.37108">
        <ele>392</ele>
        <time>2019-02-18T11:28:12+01:00</time>
      </trkpt>
      <trkpt lat="43.82389" lon="5.3702">
        <ele>391</ele>
        <time>2019-02-18T11:28:17+01:00</time>
      </trkpt>
      <trkpt lat="43.82385" lon="5.36949">
        <ele>398</ele>
        <time>2019-02-18T11:28:22+01:00</time>
      </trkpt>
      <trkpt lat="43.82393" lon="5.36935">
        <ele>405</ele>
        <time>2019-02-18T11:28:27+01:00</time>
      </trkpt>
      <trkpt lat="43.82403" lon="5.36954">
        <ele>407</ele>
        <time>2019-02-18T11:28:32+01:00</time>
      </trkpt>
      <trkpt lat="43.82419" lon="5.37042">
        <ele>402</ele>
        <time>2019-02-18T11:28:37+01:00</time>
      </trkpt>
      <trkpt lat="43.82423" lon="5.37111">
        <ele>402</ele>
        <time>2019-02-18T11:28:42+01:00</time>
      </trkpt>
      <trkpt lat="43.82426" lon="5.37151">
        <ele>404</ele>
        <time>2019-02-18T11:28:47+01:00</time>
      </trkpt>
      <trkpt lat="43.82439" lon="5.37223">
        <ele>406</ele>
        <time>2019-02-18T11:28:52+01:00</time>
      </trkpt>
      <trkpt lat="43.8245" lon="5.37261">
        <ele>407</ele>
        <time>2019-02-18T11:28:57+01:00</time>
      </trkpt>
      <trkpt lat="43.82475" lon="5.37298">
        <ele>415</ele>
        <time>2019-02-18T11:29:02+01:00</time>
      </trkpt>
      <trkpt lat="43.82518" lon="5.37347">
        <ele>424</ele>
        <time>2019-02-18T11:29:07+01:00</time>
      </trkpt>
      <trkpt lat="43.82548" lon="5.37394">
        <ele>426</ele>
        <time>2019-02-18T11:29:12+01:00</time>
      </trkpt>
      <trkpt lat="43.82581" lon="5.37469">
        <ele>431</ele>
        <time>2019-02-18T11:29:17+01:00</time>
      </trkpt>
      <trkpt lat="43.826" lon="5.37504">
        <ele>434</ele>
        <time>2019-02-18T11:29:22+01:00</time>
      </trkpt>
      <trkpt lat="43.82643" lon="5.37562">
        <ele>440</ele>
        <time>2019-02-18T11:29:27+01:00</time>
      </trkpt>
      <trkpt lat="43.82693" lon="5.3761">
        <ele>443</ele>
        <time>2019-02-18T11:29:32+01:00</time>
      </trkpt>
      <trkpt lat="43.82708" lon="5.37643">
        <ele>445</ele>
        <time>2019-02-18T11:29:37+01:00</time>
      </trkpt>
      <trkpt lat="43.82739" lon="5.37669">
        <ele>444</ele>
        <time>2019-02-18T11:29:42+01:00</time>
      </trkpt>
      <trkpt lat="43.82763" lon="5.37711">
        <ele>449</ele>
        <time>2019-02-18T11:29:47+01:00</time>
      </trkpt>
      <trkpt lat="43.82791" lon="5.37724">
        <ele>451</ele>
        <time>2019-02-18T11:29:52+01:00</time>
      </trkpt>
      <trkpt lat="43.82809" lon="5.37741">
        <ele>451</ele>
        <time>2019-02-18T11:29:57+01:00</time>
      </trkpt>
      <trkpt lat="43.82858" lon="5.37756">
        <ele>452</ele>
        <time>2019-02-18T11:30:02+01:00</time>
      </trkpt>
      <trkpt lat="43.82894" lon="5.378">
        <ele>455</ele>
        <time>2019-02-18T11:30:07+01:00</time>
      </trkpt>
      <trkpt lat="43.82943" lon="5.37834">
        <ele>456</ele>
        <time>2019-02-18T11:30:12+01:00</time>
      </trkpt>
    </trkseg>
  </trk>
</gpx>